Aviation Digital Data Service (ADDS)

Output produced by METARs form (1521 UTC 23 January 2019)
found at http://www.aviationweather.gov/metar/data/
 
Forecast for: OISS (SHIRAZ (CIV/AFB), IR)
Text: TAF OISS 231100Z 2312/2418 23006KT CAVOK
Forecast period: 1200 UTC 23 January 2019 to 1800 UTC 24 January 2019
Forecast type: FROM: standard forecast or significant change
Winds: from the SW (230 degrees) at 7 MPH (6 knots; 3.1 m/s)
Visibility: 6 or more miles 10+ km)
Ceiling: unknown
Clouds: missing
Weather: NSW  (no significant weather)
Text: TEMPO 2312/2316 27010G18KT
Forecast period: 1200 to 1600 UTC 23 January 2019
Forecast type: TEMPORARY: The following changes expected for less than half the time period
Winds: from the W (270 degrees) at 12 MPH (10 knots; 5.1 m/s)
gusting to 21 MPH (18 knots; 9.3 m/s)
Visibility: missing
Ceiling: unknown
Clouds: missing
Weather: no significant weather forecast for this period